Latest Weather Observations for Mareeba

IDQ60801

Issued at 9:02 pm EST Sunday 21 December 2014 (issued every 30 minutes, with the page automatically refreshed every 10 minutes)

About weather observations | Map of weather stations | Latest weather observations for QLD | Other Formats
Station Details ID: 031210 Name: MAREEBA AIRPORT Lat: -17.07 Lon: 145.43 Height: 471.93 m
Data from the previous 72 hours. | See also: Recent months at Mareeba
Date/Time
EST
Temp
°C
App
Temp
°C
Dew
Point
Rel
Hum
%
Delta-T
°C
Wind Press
QNH
hPa
Press
MSL
hPa
Rain
since 9 am
mm
Dir
 
Spd
km/h
Gust
km/h
Spd
kts
Gust
kts
21/09:00pm 24.9 25.5 18.6 68 4.1 SSE 13 17 7 9 1013.9 1010.6 0.0
21/08:30pm 25.0 24.8 18.4 66 4.3 SE 17 22 9 12 1013.7 - 0.0
21/08:00pm 25.2 25.0 18.6 67 4.3 SE 17 22 9 12 1013.4 - 0.0
21/07:30pm 26.3 27.2 19.2 65 4.7 ESE 13 17 7 9 1013.3 - 0.0
21/07:00pm 26.5 28.1 19.1 64 4.8 E 9 15 5 8 1012.9 - 0.0
21/06:30pm 26.4 27.9 18.8 63 5.0 ENE 9 13 5 7 1012.6 - 0.0
21/06:00pm 27.0 28.0 18.6 60 5.5 E 11 19 6 10 1012.0 1008.7 0.0
21/05:30pm 27.9 28.6 18.9 58 5.9 ENE 13 22 7 12 1011.7 - 0.0
21/05:00pm 29.3 28.9 18.1 51 7.3 ESE 17 24 9 13 1011.6 - 0.0
21/04:30pm 29.1 28.8 18.2 51 7.1 NE 17 24 9 13 1011.3 - 0.0
21/04:00pm 29.6 30.8 19.0 53 7.0 NE 11 24 6 13 1011.4 - 0.0
21/03:30pm 28.9 29.3 18.9 54 6.6 NNE 15 22 8 12 1011.6 - 0.0
21/03:00pm 28.7 28.4 18.2 53 6.8 NE 17 24 9 13 1012.1 1008.8 0.0
21/02:30pm 29.3 29.1 18.4 51 7.1 NE 17 24 9 13 1012.4 - 0.0
21/02:00pm 29.4 29.6 18.5 52 7.1 E 15 22 8 12 1012.4 - 0.0
21/01:30pm 30.4 30.4 18.2 48 8.0 NNE 15 24 8 13 1012.6 - 0.0
21/01:00pm 30.4 30.4 18.2 48 8.0 ENE 15 24 8 13 1012.9 - 0.0
21/12:30pm 29.7 29.6 17.8 48 7.7 NE 15 22 8 12 1013.4 - 0.0
21/12:00pm 29.6 29.9 17.8 49 7.7 NNE 13 24 7 13 1013.7 1010.4 0.0
21/11:30am 30.1 30.1 17.2 46 8.3 N 13 20 7 11 1014.1 - 0.0
21/11:00am 30.3 30.9 16.7 44 8.7 NE 9 19 5 10 1014.4 - 0.0
21/10:30am 29.5 29.7 16.7 46 8.2 NE 11 22 6 12 1014.5 - 0.0
21/10:00am 28.8 28.6 16.7 48 7.7 ESE 13 22 7 12 1014.7 - 0.0
21/09:30am 27.7 28.8 18.1 56 6.2 NE 9 13 5 7 1015.0 - 0.0
21/09:00am 26.8 28.8 19.2 63 5.0 NE 7 13 4 7 1015.2 1012.0 0.0
21/08:30am 25.7 27.6 18.9 66 4.4 ENE 7 13 4 7 1014.9 - 0.0
21/08:00am 25.0 26.4 18.7 68 4.1 E 9 15 5 8 1014.8 - 0.0
21/07:30am 25.2 27.6 18.9 68 4.1 E 4 9 2 5 1014.5 - 0.0
21/07:00am 24.2 25.8 19.1 73 3.3 SE 9 11 5 6 1014.3 - 0.0
21/06:30am 23.2 24.9 19.4 79 2.5 SSE 9 13 5 7 1014.2 - 0.0
21/06:00am 22.0 24.9 19.0 83 1.9 SE 2 7 1 4 1013.7 1010.4 0.0
21/05:30am 21.8 23.9 19.0 84 1.8 E 6 7 3 4 1013.2 - 0.0
21/05:00am 22.1 24.2 18.9 82 2.1 ESE 6 7 3 4 1012.6 - 0.0
21/04:30am 22.1 24.1 19.1 83 1.9 SE 7 9 4 5 1012.5 - 0.0
21/04:00am 21.7 23.1 18.7 83 1.9 SE 9 11 5 6 1012.5 - 0.0
21/03:30am 21.9 22.5 18.7 82 2.1 SE 13 17 7 9 1012.5 - 0.0
21/03:00am 22.1 23.6 18.9 82 2.1 SSE 9 11 5 6 1012.5 1009.3 0.0
21/02:30am 22.5 24.0 18.9 80 2.3 SE 9 13 5 7 1012.8 - 0.0
21/02:00am 22.8 24.0 19.0 79 2.5 SE 11 17 6 9 1013.1 - 0.0
21/01:30am 22.8 24.1 19.2 80 2.3 SE 11 15 6 8 1013.3 - 0.0
21/01:00am 22.7 25.8 19.5 82 2.1 SE 2 7 1 4 1013.4 - 0.0
21/12:30am 22.3 24.1 19.5 84 1.8 SSE 9 13 5 7 1013.4 - 0.0
21/12:00am 22.3 25.6 19.1 82 2.1 CALM 0 0 0 0 1013.6 1010.3 0.0
 
Date/Time
EST
Temp
°C
App
Temp
°C
Dew
Point
Rel
Hum
%
Delta-T
°C
Wind Press
QNH
hPa
Press
MSL
hPa
Rain
since 9 am
mm
Dir
 
Spd
km/h
Gust
km/h
Spd
kts
Gust
kts
20/11:30pm 22.4 25.7 19.0 81 2.2 CALM 0 6 0 3 1013.7 - 0.0
20/11:00pm 22.8 25.5 19.4 81 2.2 WSW 4 9 2 5 1013.8 - 0.0
20/10:30pm 23.4 26.7 19.1 77 2.8 CALM 0 0 0 0 1013.6 - 0.0
20/10:00pm 23.6 26.2 19.3 77 2.8 NE 4 9 2 5 1013.6 - 0.0
20/09:30pm 23.5 25.8 19.4 78 2.7 NNE 6 7 3 4 1013.5 - 0.0
20/09:00pm 23.7 26.0 19.4 77 2.8 N 6 7 3 4 1013.4 1010.1 0.0
20/08:30pm 24.0 26.2 19.7 77 2.8 NNE 7 13 4 7 1013.1 - 0.0
20/08:00pm 24.2 26.5 19.9 77 2.8 N 7 13 4 7 1012.8 - 0.0
20/07:30pm 24.6 26.3 20.1 76 3.0 N 11 19 6 10 1012.4 - 0.0
20/07:00pm 25.1 26.3 19.9 73 3.4 N 13 20 7 11 1012.2 - 0.0
20/06:30pm 26.0 26.8 19.9 69 4.0 N 15 22 8 12 1011.7 - 0.0
20/06:00pm 26.8 27.6 19.9 66 4.6 NNE 15 22 8 12 1011.3 1008.0 0.0
20/05:30pm 27.9 28.2 19.7 61 5.4 N 17 30 9 16 1010.9 - 0.0
20/05:00pm 28.7 28.6 19.6 58 6.0 N 19 30 10 16 1010.4 - 0.0
20/04:30pm 29.5 29.6 19.2 54 6.8 N 17 28 9 15 1010.0 - 0.0
20/04:00pm 30.1 29.8 19.5 53 7.0 N 20 30 11 16 1010.1 - 0.0
20/03:30pm 30.6 30.4 19.3 51 7.5 NNE 19 26 10 14 1010.1 - 0.0
20/03:00pm 31.3 31.1 19.3 49 8.0 N 19 28 10 15 1010.3 1007.0 0.0
20/02:30pm 31.3 30.6 18.3 46 8.5 N 19 30 10 16 1010.6 - 0.0
20/02:00pm 32.0 32.3 17.1 41 9.6 NNE 11 19 6 10 1010.7 - 0.0
20/01:30pm 31.3 30.9 17.2 42 9.1 NE 15 26 8 14 1011.4 - 0.0
20/01:00pm 31.3 32.9 18.3 46 8.5 SE 7 11 4 6 1012.0 - 0.0
20/12:30pm 30.4 31.0 16.8 44 8.7 NE 9 20 5 11 1012.5 - 0.0
20/12:00pm 29.6 29.3 17.4 47 7.9 N 15 24 8 13 1013.1 1009.8 0.0
20/11:30am 28.4 28.8 17.3 51 7.1 NE 11 15 6 8 1013.5 - 0.0
20/11:00am 27.7 27.7 17.2 52 6.7 N 13 19 7 10 1013.9 - 0.0
20/10:30am 27.6 28.4 17.2 53 6.6 NE 9 15 5 8 1014.0 - 0.0
20/10:00am 26.6 28.0 17.7 58 5.7 NE 7 15 4 8 1014.1 - 0.0
20/09:30am 25.7 27.1 18.6 65 4.6 NNE 9 17 5 9 1014.0 - 0.0
20/09:00am 25.1 26.0 18.5 67 4.3 NNE 11 19 6 10 1013.9 1010.6 0.0
20/08:30am 24.6 26.6 18.8 70 3.8 NE 6 9 3 5 1014.1 - 0.0
20/08:00am 24.5 25.9 18.7 70 3.8 SE 9 11 5 6 1014.2 - 0.0
20/07:30am 24.1 25.9 18.7 72 3.5 SSE 7 11 4 6 1014.2 - 0.0
20/07:00am 23.7 25.6 19.0 75 3.0 SSE 7 11 4 6 1013.9 - 0.0
20/06:30am 23.2 24.6 18.7 76 2.9 S 9 13 5 7 1013.7 - 0.0
20/06:00am 23.1 24.1 18.6 76 2.9 SE 11 15 6 8 1013.4 1010.1 0.0
20/05:30am 23.1 24.2 18.8 77 2.8 SSE 11 15 6 8 1013.1 - 0.0
20/05:00am 22.8 24.3 19.0 79 2.5 SSE 9 13 5 7 1012.7 - 0.0
20/04:30am 22.7 24.9 19.1 80 2.3 SE 6 9 3 5 1012.5 - 0.0
20/04:00am 22.7 26.2 19.5 82 2.1 CALM 0 0 0 0 1012.6 - 0.0
20/03:30am 22.5 26.0 19.5 83 2.0 CALM 0 0 0 0 1012.7 - 0.0
20/03:00am 22.3 25.9 19.7 85 1.7 CALM 0 0 0 0 1012.7 1009.5 0.0
20/02:30am 21.9 25.1 18.9 83 1.9 CALM 0 0 0 0 1013.1 - 0.0
20/02:00am 22.8 26.1 19.2 80 2.3 CALM 0 0 0 0 1013.1 - 0.0
20/01:30am 23.1 25.7 19.3 79 2.5 ENE 4 7 2 4 1013.2 - 0.0
20/01:00am 23.1 26.5 19.3 79 2.5 CALM 0 0 0 0 1013.5 - 0.0
20/12:30am 23.5 25.5 19.2 77 2.8 NE 7 11 4 6 1013.7 - 0.0
20/12:00am 23.7 26.9 19.8 79 2.6 NNE 2 7 1 4 1014.0 1010.7 0.0
 
Date/Time
EST
Temp
°C
App
Temp
°C
Dew
Point
Rel
Hum
%
Delta-T
°C
Wind Press
QNH
hPa
Press
MSL
hPa
Rain
since 9 am
mm
Dir
 
Spd
km/h
Gust
km/h
Spd
kts
Gust
kts
19/11:30pm 23.7 27.2 19.6 78 2.7 CALM 0 6 0 3 1014.3 - 0.0
19/11:00pm 23.7 26.1 19.6 78 2.7 NNE 6 9 3 5 1014.3 - 0.0
19/10:30pm 23.8 26.0 19.5 77 2.8 NE 7 13 4 7 1014.4 - 0.0
19/10:00pm 23.8 25.9 19.3 76 2.9 NNE 7 9 4 5 1014.1 - 0.0
19/09:30pm 23.9 26.2 19.4 76 2.9 NNE 6 9 3 5 1013.8 - 0.0
19/09:00pm 24.1 25.7 19.2 74 3.2 NNE 9 13 5 7 1013.3 1010.0 0.0
19/08:30pm 24.3 25.4 18.9 72 3.5 N 11 15 6 8 1013.2 - 0.0
19/08:00pm 24.9 26.8 19.0 69 3.8 NNE 7 11 4 6 1012.7 - 0.0
19/07:30pm 25.1 26.2 18.8 68 4.1 N 11 17 6 9 1012.2 - 0.0
19/07:00pm 25.7 27.1 18.6 65 4.6 N 9 15 5 8 1011.8 - 0.0
19/06:30pm 26.7 27.4 18.0 59 5.6 NE 11 17 6 9 1011.4 - 0.0
19/06:00pm 28.5 29.0 17.4 51 7.1 NNE 11 20 6 11 1011.1 1007.8 0.0
19/05:30pm 30.0 29.5 16.8 45 8.4 NNE 15 22 8 12 1010.6 - 0.0
19/05:00pm 30.7 30.2 17.0 43 8.8 N 15 20 8 11 1010.3 - 0.0
19/04:30pm 31.4 30.7 17.3 43 9.1 NNE 17 24 9 13 1010.2 - 0.0
19/04:00pm 31.7 31.6 17.9 43 9.0 NNE 15 26 8 14 1010.1 - 0.0
19/03:30pm 32.0 31.1 17.8 42 9.3 NNE 19 30 10 16 1010.1 - 0.0
19/03:00pm 32.4 31.8 17.5 41 9.7 N 17 30 9 16 1010.3 1007.0 0.0
19/02:30pm 33.2 32.9 16.5 36 10.7 N 13 22 7 12 1010.6 - 0.0
19/02:00pm 32.7 32.8 16.5 37 10.4 N 11 22 6 12 1011.1 - 0.0
19/01:30pm 32.6 32.1 16.0 36 10.6 N 13 22 7 12 1011.6 - 0.0
19/01:00pm 32.4 33.2 16.3 38 10.3 N 7 17 4 9 1012.0 - 0.0
19/12:30pm 32.2 32.1 16.1 38 10.3 NNE 11 19 6 10 1012.5 - 0.0
19/12:00pm 30.7 30.6 15.9 40 9.4 NNE 11 20 6 11 1013.1 1009.8 0.0
19/11:30am 30.2 30.5 16.9 44 8.5 N 11 15 6 8 1013.6 - 0.0
19/11:00am 29.6 30.7 18.1 50 7.5 NNE 9 17 5 9 1014.0 - 0.0
19/10:30am 28.4 29.6 18.2 54 6.6 NNE 9 15 5 8 1014.2 - 0.0
19/10:00am 27.9 29.5 19.1 58 5.8 ENE 9 17 5 9 1014.4 - 0.0
19/09:30am 26.8 27.6 18.1 59 5.6 ENE 11 17 6 9 1014.6 - 0.0
19/09:00am 25.8 27.4 19.2 67 4.3 N 9 17 5 9 1014.7 1011.5 0.0
19/08:30am 24.8 26.6 18.3 67 4.2 ENE 6 11 3 6 1014.8 - 0.0
19/08:00am 24.4 26.1 18.1 68 4.0 ESE 6 11 3 6 1014.6 - 0.0
19/07:30am 23.3 25.4 19.0 77 2.8 ENE 6 7 3 4 1014.6 - 0.0
19/07:00am 22.0 25.3 19.2 84 1.8 CALM 0 0 0 0 1014.7 - 0.0
19/06:30am 20.8 24.1 19.1 90 1.1 CALM 0 0 0 0 1014.5 - 0.0
19/06:00am 20.1 21.8 18.6 91 1.0 SW 7 9 4 5 1014.2 1010.9 0.0
19/05:30am 20.0 22.9 18.3 90 1.1 CALM 0 0 0 0 1013.5 - 0.0
19/05:00am 19.8 21.9 18.1 90 1.1 W 4 9 2 5 1012.8 - 0.0
19/04:30am 20.0 22.5 18.1 89 1.2 WNW 2 6 1 3 1012.5 - 0.0
19/04:00am 20.2 22.8 18.3 89 1.2 SW 2 7 1 4 1012.1 - 0.0
19/03:30am 20.2 23.0 18.0 87 1.4 CALM 0 0 0 0 1011.8 - 0.0
19/03:00am 20.7 23.2 18.1 85 1.6 E 2 9 1 5 1012.4 1009.1 0.0
19/02:30am 20.4 21.9 18.0 86 1.5 SE 7 7 4 4 1012.7 - 0.0
19/02:00am 20.9 22.0 18.1 84 1.8 E 9 13 5 7 1013.1 - 0.0
19/01:30am 21.7 23.5 18.7 83 1.9 ESE 7 11 4 6 1013.5 - 0.0
19/01:00am 21.2 23.1 18.6 85 1.7 SSW 6 9 3 5 1014.4 - 0.0
19/12:30am 20.8 22.1 18.4 86 1.5 W 9 13 5 7 1014.7 - 0.0
19/12:00am 21.0 23.7 18.6 86 1.5 WSW 2 9 1 5 1014.9 1011.7 0.0
 
Date/Time
EST
Temp
°C
App
Temp
°C
Dew
Point
Rel
Hum
%
Delta-T
°C
Wind Press
QNH
hPa
Press
MSL
hPa
Rain
since 9 am
mm
Dir
 
Spd
km/h
Gust
km/h
Spd
kts
Gust
kts
18/11:30pm 20.8 22.1 18.4 86 1.5 WSW 9 11 5 6 1014.9 - 0.0
18/11:00pm 20.9 23.8 18.1 84 1.8 CALM 0 0 0 0 1014.5 - 0.0
18/10:30pm 21.4 24.3 18.2 82 2.0 CALM 0 0 0 0 1014.2 - 0.0
18/10:00pm 21.6 24.5 18.2 81 2.2 CALM 0 0 0 0 1014.2 - 0.0
18/09:30pm 22.1 25.0 18.1 78 2.5 CALM 0 0 0 0 1014.0 - 0.0

Other Formats:

Comma delimited format used in spreadsheet applications
http://www.bom.gov.au/fwo/IDQ60801/IDQ60801.95286.axf

JavaScript Object Notation format (JSON) in row-major order
http://www.bom.gov.au/fwo/IDQ60801/IDQ60801.95286.json